Time;durP1;ratioP1;P1;durP2;ratioP2;P2;SDS_P1;SDS_P2;PMS_P1;PMS_P2;Temp;Humidity;BMP_temperature;BMP_pressure;BME280_temperature;BME280_humidity;BME280_pressure;Samples;Min_cycle;Max_cycle;Signal;HPM_P1;HPM_P2
2022/05/01 00:02:10;;;;;;;;;;;;;;;30.08;25.70;101218.66;5075887;28;1093;-35
2022/05/01 00:04:36;;;;;;;;;;;;;;;29.81;25.57;101213.78;5078457;28;761;-36
2022/05/01 00:07:01;;;;;;;;;;;;;;;29.46;26.28;101208.94;5075673;28;929;-38
2022/05/01 00:09:27;;;;;;;;;;;;;;;29.40;26.23;101204.25;5070046;28;1026;-37
2022/05/01 00:11:53;;;;;;;;;;;;;;;29.46;26.59;101217.06;5059180;28;815;-36
2022/05/01 00:14:18;;;;;;;;;;;;;;;30.15;25.51;101214.97;5058062;28;811;-35
2022/05/01 00:16:43;;;;;;;;;;;;;;;29.54;26.03;101216.97;5058983;28;904;-36
2022/05/01 00:19:09;;;;;;;;;;;;;;;29.40;26.54;101213.22;5059209;28;774;-37
2022/05/01 00:21:34;;;;;;;;;;;;;;;29.27;26.52;101208.47;5071144;28;1906;-35
2022/05/01 00:24:00;;;;;;;;;;;;;;;29.26;26.61;101205.94;5065346;28;1024;-38
2022/05/01 00:26:25;;;;;;;;;;;;;;;29.06;26.84;101199.19;5077982;28;801;-37
2022/05/01 00:28:51;;;;;;;;;;;;;;;29.19;26.64;101203.13;5059861;28;933;-36
2022/05/01 00:31:16;;;;;;;;;;;;;;;28.90;26.86;101200.19;5078125;28;941;-36
2022/05/01 00:36:25;;;;;;;;;;;;;;;29.58;26.50;101206.56;5072266;28;616;-39
2022/05/01 00:38:51;;;;;;;;;;;;;;;29.94;26.20;101205.78;5071069;28;864;-32
2022/05/01 00:41:16;;;;;;;;;;;;;;;30.02;25.28;101212.97;5077611;28;1894;-38
2022/05/01 00:44:01;;;;;;;;;;;;;;;29.43;25.94;101204.72;5077452;28;858;-38
2022/05/01 00:46:27;;;;;;;;;;;;;;;29.26;26.51;101197.81;5064780;28;858;-36
2022/05/01 00:48:53;;;;;;;;;;;;;;;29.92;26.21;101202.44;5058558;28;891;-38
2022/05/01 00:51:18;;;;;;;;;;;;;;;29.96;25.65;101200.19;5058336;28;862;-38
2022/05/01 00:53:43;;;;;;;;;;;;;;;29.51;26.58;101197.53;5060111;28;840;-38
2022/05/01 00:56:09;;;;;;;;;;;;;;;29.24;26.81;101198.00;5045858;28;987;-36
2022/05/01 00:58:34;;;;;;;;;;;;;;;29.36;27.04;101198.38;5045778;28;890;-38
2022/05/01 01:00:59;;;;;;;;;;;;;;;29.15;26.90;101194.53;5040381;28;1955;-39
2022/05/01 01:03:24;;;;;;;;;;;;;;;29.09;27.26;101200.69;5058333;28;962;-36
2022/05/01 01:05:50;;;;;;;;;;;;;;;29.00;27.34;101199.09;5057611;28;866;-38
2022/05/01 01:08:15;;;;;;;;;;;;;;;29.01;27.08;101196.19;5058890;28;906;-37
2022/05/01 01:10:40;;;;;;;;;;;;;;;29.22;27.17;101189.22;5068683;28;889;-37
2022/05/01 01:13:06;;;;;;;;;;;;;;;29.42;27.08;101203.03;5064968;28;773;-36
2022/05/01 01:15:31;;;;;;;;;;;;;;;29.75;26.74;101195.53;5058074;28;1490;-35
2022/05/01 01:17:57;;;;;;;;;;;;;;;30.31;25.73;101204.94;5057911;28;818;-37
2022/05/01 01:20:23;;;;;;;;;;;;;;;29.56;26.38;101203.22;5057486;28;1961;-38
2022/05/01 01:22:49;;;;;;;;;;;;;;;29.42;26.55;101203.03;5057776;28;788;-35
2022/05/01 01:25:14;;;;;;;;;;;;;;;29.74;26.60;101202.84;5068859;28;877;-37
2022/05/01 01:27:40;;;;;;;;;;;;;;;30.18;25.81;101214.59;5075507;28;896;-36
2022/05/01 01:32:50;;;;;;;;;;;;;;;29.33;26.66;101212.28;5076770;28;845;-36
2022/05/01 01:35:16;;;;;;;;;;;;;;;29.28;26.47;101212.03;5076466;28;941;-36
2022/05/01 01:37:44;;;;;;;;;;;;;;;29.13;26.56;101210.13;5071103;28;832;-37
2022/05/01 01:40:10;;;;;;;;;;;;;;;29.03;26.96;101206.88;5064316;28;1942;-36
2022/05/01 01:42:36;;;;;;;;;;;;;;;29.05;26.75;101210.22;5057551;28;835;-35
2022/05/01 01:45:01;;;;;;;;;;;;;;;28.92;27.19;101205.41;5057345;28;924;-37
2022/05/01 01:47:26;;;;;;;;;;;;;;;28.84;27.17;101207.16;5038702;28;1104;-36
2022/05/01 01:49:52;;;;;;;;;;;;;;;29.39;26.95;101211.56;5063286;28;826;-33
2022/05/01 01:52:17;;;;;;;;;;;;;;;29.49;26.96;101213.13;5057454;28;814;-35
2022/05/01 01:54:42;;;;;;;;;;;;;;;29.67;26.79;101210.91;5064101;28;1028;-34
2022/05/01 01:57:07;;;;;;;;;;;;;;;30.25;25.85;101216.56;5057106;28;806;-35
2022/05/01 01:59:33;;;;;;;;;;;;;;;29.54;26.53;101207.97;5057075;28;1948;-37
2022/05/01 02:01:58;;;;;;;;;;;;;;;29.49;26.47;101210.41;5063308;28;838;-38
2022/05/01 02:04:23;;;;;;;;;;;;;;;30.13;26.04;101208.91;5060591;28;823;-38
2022/05/01 02:06:49;;;;;;;;;;;;;;;30.22;25.75;101209.66;5057206;28;821;-37
2022/05/01 02:09:15;;;;;;;;;;;;;;;29.67;26.69;101210.91;5065403;28;900;-37
2022/05/01 02:11:41;;;;;;;;;;;;;;;29.40;26.52;101210.50;5076028;28;791;-37
2022/05/01 02:14:06;;;;;;;;;;;;;;;29.37;26.76;101210.03;5075797;28;845;-37
2022/05/01 02:16:31;;;;;;;;;;;;;;;29.31;26.69;101208.94;5061927;28;841;-38
2022/05/01 02:18:57;;;;;;;;;;;;;;;29.11;27.01;101206.78;5056794;28;898;-36
2022/05/01 02:21:35;;;;;;;;;;;;;;;29.19;27.00;101220.25;5056328;28;1977;-37
2022/05/01 02:24:01;;;;;;;;;;;;;;;28.96;27.11;101212.16;5058746;28;809;-38
2022/05/01 02:26:27;;;;;;;;;;;;;;;28.96;26.94;101223.81;5075839;28;833;-38
2022/05/01 02:28:53;;;;;;;;;;;;;;;29.25;27.48;101229.47;5067832;28;884;-37
2022/05/01 02:31:18;;;;;;;;;;;;;;;29.69;26.70;101222.41;5056655;28;799;-37
2022/05/01 02:33:44;;;;;;;;;;;;;;;29.86;26.61;101227.59;5056184;28;834;-37
2022/05/01 02:36:10;;;;;;;;;;;;;;;30.32;25.89;101222.91;5056315;28;820;-38
2022/05/01 02:38:36;;;;;;;;;;;;;;;29.49;26.51;101216.69;5056504;28;868;-37
2022/05/01 02:41:01;;;;;;;;;;;;;;;29.32;26.79;101213.31;5068059;28;1957;-36
2022/05/01 02:43:27;;;;;;;;;;;;;;;29.52;26.74;101220.88;5056425;28;842;-37
2022/05/01 02:45:52;;;;;;;;;;;;;;;30.24;25.89;101223.03;5056547;28;840;-34
2022/05/01 02:48:17;;;;;;;;;;;;;;;29.60;26.21;101228.09;5056278;28;1089;-35
2022/05/01 02:50:43;;;;;;;;;;;;;;;29.57;27.19;101235.56;5055886;28;908;-36
2022/05/01 02:53:08;;;;;;;;;;;;;;;29.76;26.61;101232.47;5061234;28;762;-38
2022/05/01 02:55:33;;;;;;;;;;;;;;;30.12;26.24;101242.50;5062535;28;861;-38
2022/05/01 02:57:59;;;;;;;;;;;;;;;30.33;25.81;101232.72;5056500;28;750;-37
2022/05/01 03:00:24;;;;;;;;;;;;;;;29.62;26.43;101232.31;5056136;28;1911;-37
2022/05/01 03:02:49;;;;;;;;;;;;;;;29.32;26.72;101232.28;5056206;28;813;-37
2022/05/01 03:05:15;;;;;;;;;;;;;;;29.37;26.73;101229.00;5056021;28;806;-38
2022/05/01 03:07:40;;;;;;;;;;;;;;;29.29;26.62;101232.66;5062968;28;787;-35
2022/05/01 03:10:07;;;;;;;;;;;;;;;29.27;26.91;101230.13;5062149;28;999;-37
2022/05/01 03:12:32;;;;;;;;;;;;;;;29.27;26.70;101235.56;5056436;28;772;-35
2022/05/01 03:14:58;;;;;;;;;;;;;;;29.17;27.34;101234.97;5056498;28;807;-37
2022/05/01 03:17:23;;;;;;;;;;;;;;;29.20;27.21;101235.47;5063346;28;1124;-34
2022/05/01 03:22:32;;;;;;;;;;;;;;;28.64;27.93;101241.19;5055814;28;683;-36
2022/05/01 03:24:58;;;;;;;;;;;;;;;28.53;28.16;101246.00;5061899;28;962;-38
2022/05/01 03:27:23;;;;;;;;;;;;;;;28.53;28.24;101243.28;5056174;28;798;-38
2022/05/01 03:30:15;;;;;;;;;;;;;;;28.49;28.01;101255.50;5056097;28;937;-35
2022/05/01 03:32:33;;;;;;;;;;;;;;;28.42;28.34;101255.38;5068096;28;1356;-37
2022/05/01 03:35:00;;;;;;;;;;;;;;;28.33;28.36;101253.75;5055821;28;908;-36
2022/05/01 03:37:26;;;;;;;;;;;;;;;28.30;28.45;101251.38;5055762;28;758;-34
2022/05/01 03:39:51;;;;;;;;;;;;;;;28.04;26.51;101264.22;5062736;28;1905;-34
2022/05/01 03:42:16;;;;;;;;;;;;;;;27.67;25.11;101263.81;5056200;28;966;-31
2022/05/01 03:44:41;;;;;;;;;;;;;;;27.52;25.38;101261.00;5062056;28;869;-31
2022/05/01 03:47:07;;;;;;;;;;;;;;;26.59;25.27;101258.53;5060560;28;1151;-34
2022/05/01 03:49:32;;;;;;;;;;;;;;;26.38;25.59;101260.69;5075791;28;1246;-31
2022/05/01 03:51:57;;;;;;;;;;;;;;;26.10;26.06;101262.75;5078493;28;1250;-30
2022/05/01 03:54:24;;;;;;;;;;;;;;;25.92;25.89;101267.25;5075104;28;1227;-31
2022/05/01 03:56:49;;;;;;;;;;;;;;;25.82;26.34;101269.25;5077889;28;1239;-30
2022/05/01 03:59:14;;;;;;;;;;;;;;;25.98;26.31;101273.84;5075130;28;1304;-29
2022/05/01 04:01:40;;;;;;;;;;;;;;;25.85;27.45;101277.00;5074635;28;1898;-30
2022/05/01 04:04:05;;;;;;;;;;;;;;;25.58;26.85;101275.28;5074523;28;870;-28
2022/05/01 04:06:30;;;;;;;;;;;;;;;25.71;26.94;101270.34;5078788;28;790;-36
2022/05/01 04:08:55;;;;;;;;;;;;;;;25.82;26.52;101271.94;5073893;28;852;-29
2022/05/01 04:11:21;;;;;;;;;;;;;;;25.68;26.88;101273.38;5064545;28;757;-31
2022/05/01 04:13:48;;;;;;;;;;;;;;;25.53;26.75;101270.41;5058701;28;818;-28
2022/05/01 04:16:14;;;;;;;;;;;;;;;25.53;27.33;101279.31;5059400;28;782;-31
2022/05/01 04:18:39;;;;;;;;;;;;;;;25.18;27.57;101264.97;5059451;28;878;-33
2022/05/01 04:21:07;;;;;;;;;;;;;;;25.01;27.90;101263.97;5059006;28;1902;-30
2022/05/01 04:23:32;;;;;;;;;;;;;;;24.94;27.84;101253.84;5065417;28;869;-31
2022/05/01 04:25:57;;;;;;;;;;;;;;;24.88;27.83;101253.59;5077927;28;882;-30
2022/05/01 04:28:23;;;;;;;;;;;;;;;25.15;27.54;101252.66;5078159;28;820;-32
2022/05/01 04:30:50;;;;;;;;;;;;;;;25.15;27.37;101258.06;5078196;28;878;-28
2022/05/01 04:33:15;;;;;;;;;;;;;;;25.26;27.51;101259.63;5078089;28;946;-30
2022/05/01 04:35:44;;;;;;;;;;;;;;;24.83;28.62;101251.38;5071571;28;952;-33
2022/05/01 04:38:10;;;;;;;;;;;;;;;24.82;28.50;101255.06;5060365;28;1611;-30
2022/05/01 04:40:36;;;;;;;;;;;;;;;24.94;28.34;101247.63;5077351;28;1957;-33
2022/05/01 04:43:01;;;;;;;;;;;;;;;25.35;27.94;101248.91;5077702;28;750;-32
2022/05/01 04:45:27;;;;;;;;;;;;;;;25.53;27.71;101252.41;5078341;28;789;-32
2022/05/01 04:47:52;;;;;;;;;;;;;;;25.65;27.81;101253.00;5075906;28;929;-30
2022/05/01 04:50:19;;;;;;;;;;;;;;;25.60;27.97;101254.44;5060140;28;782;-29
2022/05/01 04:52:44;;;;;;;;;;;;;;;25.51;28.10;101250.84;5069089;28;829;-31
2022/05/01 04:55:09;;;;;;;;;;;;;;;22.73;32.04;101247.00;5072929;28;1030;-33
2022/05/01 04:57:37;;;;;;;;;;;;;;;21.80;34.89;101250.72;5058464;28;873;-28
2022/05/01 05:00:02;;;;;;;;;;;;;;;21.39;36.11;101245.25;5061458;28;1926;-29
2022/05/01 05:02:38;;;;;;;;;;;;;;;20.94;36.96;101241.88;5060612;28;829;-31
2022/05/01 05:05:04;;;;;;;;;;;;;;;20.69;37.79;101246.56;5057994;28;810;-34
2022/05/01 05:07:30;;;;;;;;;;;;;;;20.60;38.29;101239.31;5058405;28;829;-33
2022/05/01 05:09:55;;;;;;;;;;;;;;;20.58;38.62;101231.44;5065262;28;794;-32
2022/05/01 05:12:22;;;;;;;;;;;;;;;22.84;33.63;101240.63;5057865;28;818;-31
2022/05/01 05:14:49;;;;;;;;;;;;;;;23.75;32.09;101237.63;5064552;28;886;-31
2022/05/01 05:17:18;;;;;;;;;;;;;;;24.17;30.41;101228.22;5058090;28;782;-31
2022/05/01 05:19:43;;;;;;;;;;;;;;;24.39;30.02;101226.09;5057788;28;1910;-32
2022/05/01 05:22:08;;;;;;;;;;;;;;;24.18;30.41;101229.91;5057733;28;750;-34
2022/05/01 05:24:34;;;;;;;;;;;;;;;22.02;33.56;101222.03;5070355;28;1331;-33
2022/05/01 05:26:59;;;;;;;;;;;;;;;20.97;36.75;101222.06;5070201;28;854;-29
2022/05/01 05:29:24;;;;;;;;;;;;;;;21.33;36.80;101227.94;5061288;28;1387;-31
2022/05/01 05:31:49;;;;;;;;;;;;;;;22.94;33.10;101221.00;5065051;28;1403;-34
2022/05/01 05:34:15;;;;;;;;;;;;;;;22.46;31.82;101216.31;5058000;28;889;-33
2022/05/01 05:36:40;;;;;;;;;;;;;;;20.67;37.56;101208.41;5062375;28;889;-31
2022/05/01 05:39:05;;;;;;;;;;;;;;;20.44;38.42;101211.19;5064168;28;825;-31
2022/05/01 05:41:30;;;;;;;;;;;;;;;22.32;34.69;101217.56;5057456;28;1902;-33
2022/05/01 05:43:56;;;;;;;;;;;;;;;22.85;33.83;101215.50;5065192;28;949;-31
2022/05/01 05:46:21;;;;;;;;;;;;;;;20.83;37.41;101221.38;5057127;28;901;-33
2022/05/01 05:48:46;;;;;;;;;;;;;;;20.67;39.24;101221.78;5057139;28;794;-29
2022/05/01 05:51:12;;;;;;;;;;;;;;;22.56;34.10;101229.72;5063138;28;805;-33
2022/05/01 05:53:37;;;;;;;;;;;;;;;23.24;33.03;101228.00;5057497;28;886;-33
2022/05/01 05:56:02;;;;;;;;;;;;;;;20.51;38.49;101216.88;5063647;28;921;-30
2022/05/01 05:58:27;;;;;;;;;;;;;;;19.86;39.96;101218.44;5057190;28;782;-29
2022/05/01 06:00:53;;;;;;;;;;;;;;;21.49;36.73;101226.56;5059072;28;1905;-32
2022/05/01 06:03:19;;;;;;;;;;;;;;;23.04;34.16;101229.03;5049513;28;856;-32
2022/05/01 06:05:45;;;;;;;;;;;;;;;21.28;36.77;101220.31;5063400;28;813;-30
2022/05/01 06:08:10;;;;;;;;;;;;;;;20.15;39.47;101231.28;5057527;28;905;-28
2022/05/01 06:10:35;;;;;;;;;;;;;;;19.65;40.62;101229.84;5067383;28;1238;-34
2022/05/01 06:13:01;;;;;;;;;;;;;;;21.11;38.17;101227.09;5062358;28;1163;-31
2022/05/01 06:15:26;;;;;;;;;;;;;;;22.87;33.82;101234.97;5057049;28;826;-29
2022/05/01 06:17:51;;;;;;;;;;;;;;;21.21;37.11;101229.81;5063267;28;874;-30
2022/05/01 06:20:17;;;;;;;;;;;;;;;19.80;40.39;101234.94;5056467;28;1906;-29
2022/05/01 06:22:43;;;;;;;;;;;;;;;19.57;41.21;101233.13;5056465;28;783;-32
2022/05/01 06:25:08;;;;;;;;;;;;;;;19.35;41.97;101231.28;5063805;28;814;-31
2022/05/01 06:27:34;;;;;;;;;;;;;;;19.28;42.28;101240.72;5056503;28;805;-29
2022/05/01 06:29:59;;;;;;;;;;;;;;;20.36;40.30;101240.34;5063453;28;1108;-30
2022/05/01 06:32:25;;;;;;;;;;;;;;;22.66;35.04;101245.84;5073496;28;1168;-29
2022/05/01 06:34:50;;;;;;;;;;;;;;;23.51;33.24;101244.34;5065254;28;1073;-34
2022/05/01 06:37:15;;;;;;;;;;;;;;;23.91;32.31;101245.03;5057681;28;797;-30
2022/05/01 06:39:41;;;;;;;;;;;;;;;24.30;31.36;101245.84;5061898;28;1898;-30
2022/05/01 06:42:06;;;;;;;;;;;;;;;24.30;31.55;101232.38;5062689;28;781;-27
2022/05/01 06:44:32;;;;;;;;;;;;;;;24.75;30.78;101246.78;5037733;28;1125;-31
2022/05/01 06:46:57;;;;;;;;;;;;;;;24.68;31.01;101249.22;5057108;28;806;-29
2022/05/01 06:49:22;;;;;;;;;;;;;;;24.71;30.82;101242.69;5056242;28;897;-31
2022/05/01 06:51:47;;;;;;;;;;;;;;;25.07;29.99;101236.47;5056359;28;858;-32
2022/05/01 06:54:13;;;;;;;;;;;;;;;25.02;30.06;101241.47;5061413;28;954;-32
2022/05/01 06:56:41;;;;;;;;;;;;;;;25.38;29.37;101246.75;5064164;28;796;-34
2022/05/01 06:59:06;;;;;;;;;;;;;;;25.36;29.54;101250.63;5056321;28;806;-33
2022/05/01 07:01:32;;;;;;;;;;;;;;;25.38;29.25;101246.75;5056207;28;1906;-30
2022/05/01 07:03:57;;;;;;;;;;;;;;;25.31;29.32;101246.53;5056335;28;926;-28
2022/05/01 07:06:22;;;;;;;;;;;;;;;25.19;29.74;101251.34;5067187;28;1309;-28
2022/05/01 07:08:48;;;;;;;;;;;;;;;25.52;29.39;101248.03;5066124;28;852;-28
2022/05/01 07:11:14;;;;;;;;;;;;;;;23.69;33.09;101255.16;5059241;28;883;-29
2022/05/01 07:13:40;;;;;;;;;;;;;;;24.67;30.75;101252.91;5058370;28;838;-30
2022/05/01 07:16:05;;;;;;;;;;;;;;;25.25;29.81;101252.56;5058820;28;825;-29
2022/05/01 07:18:31;;;;;;;;;;;;;;;25.26;29.21;101262.31;5056371;28;869;-30
2022/05/01 07:20:56;;;;;;;;;;;;;;;25.41;29.27;101254.50;5067525;28;1955;-34
2022/05/01 07:23:22;;;;;;;;;;;;;;;25.53;28.62;101265.84;5062628;28;758;-30
2022/05/01 07:25:48;;;;;;;;;;;;;;;25.79;28.73;101261.47;5063431;28;792;-29
2022/05/01 07:28:14;;;;;;;;;;;;;;;25.66;28.84;101261.91;5060276;28;930;-29
2022/05/01 07:30:39;;;;;;;;;;;;;;;25.64;28.79;101275.53;5059854;28;794;-33
2022/05/01 07:33:05;;;;;;;;;;;;;;;26.03;27.85;101267.97;5069863;28;1313;-32
2022/05/01 07:35:30;;;;;;;;;;;;;;;25.58;28.47;101264.53;5067953;28;1136;-32
2022/05/01 07:37:55;;;;;;;;;;;;;;;25.85;27.57;101260.81;5075618;28;1183;-32
2022/05/01 07:40:24;;;;;;;;;;;;;;;25.78;27.79;101265.16;5074181;28;1890;-30
2022/05/01 07:42:49;;;;;;;;;;;;;;;25.73;28.40;101262.97;5077054;28;1246;-33
2022/05/01 07:45:15;;;;;;;;;;;;;;;26.07;27.85;101263.09;5065694;28;790;-32
2022/05/01 07:47:40;;;;;;;;;;;;;;;25.77;28.20;101263.50;5066199;28;823;-30
2022/05/01 07:50:06;;;;;;;;;;;;;;;24.27;31.29;101262.28;5059591;28;785;-29
2022/05/01 07:52:32;;;;;;;;;;;;;;;25.39;28.53;101258.38;5059359;28;830;-31
2022/05/01 07:54:57;;;;;;;;;;;;;;;25.72;27.93;101253.19;5066397;28;873;-34
2022/05/01 07:57:26;;;;;;;;;;;;;;;25.87;28.02;101257.97;5059563;28;826;-30
2022/05/01 07:59:51;;;;;;;;;;;;;;;26.03;27.71;101257.19;5071552;28;1910;-29
2022/05/01 08:02:17;;;;;;;;;;;;;;;26.20;27.54;101254.53;5072765;28;1069;-31
2022/05/01 08:04:42;;;;;;;;;;;;;;;26.19;27.42;101259.09;5078719;28;822;-31
2022/05/01 08:07:09;;;;;;;;;;;;;;;26.15;27.79;101265.81;5077867;28;899;-31
2022/05/01 08:09:35;;;;;;;;;;;;;;;26.19;27.64;101263.66;5071622;28;1181;-31
2022/05/01 08:12:00;;;;;;;;;;;;;;;23.35;32.89;101258.34;5071437;28;809;-30
2022/05/01 08:14:26;;;;;;;;;;;;;;;25.10;29.27;101254.13;5072370;28;1306;-29
2022/05/01 08:16:51;;;;;;;;;;;;;;;25.63;28.52;101251.44;5075599;28;1045;-31
2022/05/01 08:22:00;;;;;;;;;;;;;;;24.33;29.44;101249.06;5073136;28;968;-31
2022/05/01 08:24:25;;;;;;;;;;;;;;;24.74;30.40;101246.94;5075677;28;1096;-35
2022/05/01 08:26:51;;;;;;;;;;;;;;;25.76;28.54;101253.69;5078368;28;806;-33
2022/05/01 08:29:16;;;;;;;;;;;;;;;26.29;27.60;101251.69;5077861;28;876;-29
2022/05/01 08:31:44;;;;;;;;;;;;;;;26.56;27.06;101242.69;5078260;28;806;-29
2022/05/01 08:34:10;;;;;;;;;;;;;;;26.55;27.26;101254.47;5077888;28;850;-28
2022/05/01 08:36:36;;;;;;;;;;;;;;;26.75;26.64;101246.88;5074811;28;780;-32
2022/05/01 08:39:02;;;;;;;;;;;;;;;26.62;27.04;101245.56;5065423;28;833;-35
2022/05/01 08:41:28;;;;;;;;;;;;;;;26.53;27.25;101244.69;5061380;28;1902;-30
2022/05/01 08:43:53;;;;;;;;;;;;;;;26.67;26.79;101246.88;5058698;28;810;-31
2022/05/01 08:46:19;;;;;;;;;;;;;;;26.71;26.64;101248.25;5040921;28;854;-30
2022/05/01 08:48:51;;;;;;;;;;;;;;;26.69;27.06;101248.41;5058125;28;790;-30
2022/05/01 08:51:17;;;;;;;;;;;;;;;26.72;27.31;101248.09;5064822;28;849;-31
2022/05/01 08:53:42;;;;;;;;;;;;;;;26.73;27.22;101249.75;5062427;28;810;-32
2022/05/01 08:56:07;;;;;;;;;;;;;;;26.76;27.41;101245.88;5062015;28;959;-30
2022/05/01 08:58:33;;;;;;;;;;;;;;;26.78;27.33;101251.94;5063483;28;1105;-31
2022/05/01 09:00:58;;;;;;;;;;;;;;;26.92;27.20;101250.44;5072606;28;1976;-30
2022/05/01 09:03:24;;;;;;;;;;;;;;;26.83;26.82;101246.03;5071767;28;1096;-30
2022/05/01 09:05:49;;;;;;;;;;;;;;;26.78;27.30;101249.25;5077357;28;1234;-31
2022/05/01 09:08:15;;;;;;;;;;;;;;;26.76;27.30;101245.88;5053921;28;1382;-32
2022/05/01 09:10:40;;;;;;;;;;;;;;;26.86;27.21;101251.94;5071093;28;1085;-32
2022/05/01 09:13:06;;;;;;;;;;;;;;;26.70;27.50;101239.31;5074147;28;1148;-33
2022/05/01 09:15:32;;;;;;;;;;;;;;;26.79;27.35;101245.56;5070408;28;1239;-31
2022/05/01 09:17:58;;;;;;;;;;;;;;;25.02;29.80;101241.47;5067627;28;1089;-28
2022/05/01 09:20:23;;;;;;;;;;;;;;;24.40;30.84;101245.75;5057459;28;1973;-32
2022/05/01 09:22:50;;;;;;;;;;;;;;;23.37;33.07;101242.97;5057856;28;830;-31
2022/05/01 09:25:16;;;;;;;;;;;;;;;23.96;32.44;101240.06;5065158;28;943;-31
2022/05/01 09:27:41;;;;;;;;;;;;;;;25.52;29.65;101239.09;5063187;28;950;-29
2022/05/01 09:30:07;;;;;;;;;;;;;;;25.88;29.12;101241.63;5058737;28;850;-34
2022/05/01 09:32:37;;;;;;;;;;;;;;;25.95;28.99;101240.97;5057329;28;1385;-30
2022/05/01 09:35:02;;;;;;;;;;;;;;;26.15;28.94;101255.88;5057664;28;860;-32
2022/05/01 09:37:27;;;;;;;;;;;;;;;26.19;28.97;101239.38;5069837;28;1148;-29
2022/05/01 09:39:53;;;;;;;;;;;;;;;26.28;28.61;101243.75;5068233;28;1913;-36
2022/05/01 09:42:19;;;;;;;;;;;;;;;26.34;28.47;101242.31;5064982;28;794;-31
2022/05/01 09:44:49;;;;;;;;;;;;;;;26.46;28.59;101243.66;5039551;28;1102;-31
2022/05/01 09:47:19;;;;;;;;;;;;;;;26.33;28.51;101244.16;5046510;28;1386;-31
2022/05/01 09:49:48;;;;;;;;;;;;;;;26.51;28.00;101243.16;5057659;28;1322;-33
2022/05/01 09:52:14;;;;;;;;;;;;;;;26.57;27.69;101249.75;5076920;28;1234;-32
2022/05/01 09:54:39;;;;;;;;;;;;;;;26.51;28.09;101251.25;5065385;28;1040;-33
2022/05/01 09:57:05;;;;;;;;;;;;;;;26.46;27.87;101246.34;5075225;28;842;-31
2022/05/01 09:59:30;;;;;;;;;;;;;;;26.39;27.77;101248.88;5076579;28;1213;-31
2022/05/01 10:01:56;;;;;;;;;;;;;;;26.37;28.19;101248.22;5058344;28;1975;-34
2022/05/01 10:04:22;;;;;;;;;;;;;;;26.35;28.48;101244.84;5076405;28;774;-31
2022/05/01 10:06:48;;;;;;;;;;;;;;;26.37;28.40;101250.06;5069918;28;972;-34
2022/05/01 10:09:13;;;;;;;;;;;;;;;26.44;28.27;101252.94;5056752;28;912;-30
2022/05/01 10:11:38;;;;;;;;;;;;;;;26.39;27.95;101245.34;5047628;28;1121;-30
2022/05/01 10:14:03;;;;;;;;;;;;;;;24.82;29.97;101247.81;5047887;28;1242;-31
2022/05/01 10:16:29;;;;;;;;;;;;;;;23.03;33.73;101249.66;5038383;28;886;-32
2022/05/01 10:18:54;;;;;;;;;;;;;;;21.89;35.38;101246.38;5063130;28;779;-31
2022/05/01 10:21:19;;;;;;;;;;;;;;;21.39;36.27;101245.25;5038381;28;1902;-31
2022/05/01 10:23:45;;;;;;;;;;;;;;;23.27;33.13;101248.34;5040774;28;1075;-32
2022/05/01 10:26:14;;;;;;;;;;;;;;;23.86;31.88;101247.31;5043905;28;1472;-28
2022/05/01 10:28:45;;;;;;;;;;;;;;;24.16;31.34;101244.47;5037891;28;1011;-32
2022/05/01 10:33:58;;;;;;;;;;;;;;;24.64;30.61;101237.06;5041360;28;771;-32
2022/05/01 10:36:32;;;;;;;;;;;;;;;24.60;30.61;101237.53;5062148;28;1090;-30
2022/05/01 10:39:10;;;;;;;;;;;;;;;24.27;30.78;101241.63;5072881;28;1065;-30
2022/05/01 10:41:42;;;;;;;;;;;;;;;24.37;30.60;101244.25;5070954;28;1967;-29
2022/05/01 10:44:07;;;;;;;;;;;;;;;24.29;30.44;101244.97;5068359;28;1250;-29
2022/05/01 10:46:32;;;;;;;;;;;;;;;24.35;30.33;101243.53;5075690;28;1084;-30
2022/05/01 10:49:01;;;;;;;;;;;;;;;24.66;29.67;101243.16;5063483;28;822;-35
2022/05/01 10:51:38;;;;;;;;;;;;;;;24.48;29.82;101245.84;5056606;28;850;-32
2022/05/01 10:54:09;;;;;;;;;;;;;;;24.61;29.56;101247.31;5064337;28;825;-32
2022/05/01 10:56:35;;;;;;;;;;;;;;;24.47;29.76;101238.78;5062038;28;798;-29
2022/05/01 10:59:34;;;;;;;;;;;;;;;24.50;29.81;101245.69;5060577;28;1167;-32
2022/05/01 11:02:00;;;;;;;;;;;;;;;24.58;29.46;101246.63;5025612;28;1918;-31
2022/05/01 11:04:28;;;;;;;;;;;;;;;24.73;29.25;101246.06;5066865;28;1041;-30
2022/05/01 11:06:54;;;;;;;;;;;;;;;24.88;28.95;101242.81;5061725;28;757;-31
2022/05/01 11:09:19;;;;;;;;;;;;;;;25.23;28.67;101251.00;5065359;28;852;-31
2022/05/01 11:11:45;;;;;;;;;;;;;;;25.24;28.67;101252.72;5063072;28;925;-30
2022/05/01 11:14:12;;;;;;;;;;;;;;;25.30;28.71;101255.63;5056407;28;805;-32
2022/05/01 11:16:51;;;;;;;;;;;;;;;25.27;28.87;101255.09;5038836;28;946;-34
2022/05/01 11:19:16;;;;;;;;;;;;;;;25.27;28.83;101252.41;5068781;28;830;-29
2022/05/01 11:21:42;;;;;;;;;;;;;;;25.31;28.76;101246.53;5072747;28;1976;-32
2022/05/01 11:24:08;;;;;;;;;;;;;;;25.40;28.71;101251.97;5053478;28;895;-31
2022/05/01 11:26:33;;;;;;;;;;;;;;;25.38;28.93;101252.13;5055896;28;906;-30
2022/05/01 11:29:10;;;;;;;;;;;;;;;25.41;28.86;101250.97;5056090;28;767;-31
2022/05/01 11:31:35;;;;;;;;;;;;;;;25.51;28.63;101250.84;5069251;28;996;-29
2022/05/01 11:34:19;;;;;;;;;;;;;;;25.30;28.95;101254.78;5055611;28;933;-29
2022/05/01 11:36:54;;;;;;;;;;;;;;;25.43;28.88;101246.25;5055826;28;890;-29
2022/05/01 11:39:22;;;;;;;;;;;;;;;25.46;28.81;101247.81;5063761;28;884;-30
2022/05/01 11:42:00;;;;;;;;;;;;;;;25.45;29.08;101238.88;5057082;28;1898;-32
2022/05/01 11:44:26;;;;;;;;;;;;;;;25.64;28.64;101237.00;5075315;28;841;-31
2022/05/01 11:46:54;;;;;;;;;;;;;;;25.55;28.90;101230.69;5074855;28;853;-32
2022/05/01 11:49:19;;;;;;;;;;;;;;;25.55;28.83;101234.22;5055281;28;883;-33
2022/05/01 11:51:47;;;;;;;;;;;;;;;25.65;28.84;101228.75;5055615;28;854;-30
2022/05/01 11:54:15;;;;;;;;;;;;;;;25.74;28.74;101223.41;5059313;28;912;-33
2022/05/01 12:02:27;;;;;;;;;;;;;;;25.72;28.19;101217.31;5070796;28;695;-29
2022/05/01 12:04:59;;;;;;;;;;;;;;;25.81;28.36;101213.63;5074606;28;849;-30
2022/05/01 12:07:25;;;;;;;;;;;;;;;25.94;27.43;101205.13;5074949;28;822;-30
2022/05/01 12:09:53;;;;;;;;;;;;;;;26.05;27.28;101203.94;5066527;28;963;-29
2022/05/01 12:12:19;;;;;;;;;;;;;;;26.16;27.36;101192.00;5058847;28;956;-30
2022/05/01 12:14:45;;;;;;;;;;;;;;;26.23;27.28;101190.34;5065261;28;838;-31
2022/05/01 12:17:14;;;;;;;;;;;;;;;26.15;27.50;101193.00;5058919;28;861;-28
2022/05/01 12:19:39;;;;;;;;;;;;;;;26.21;27.11;101183.44;5059039;28;946;-30
2022/05/01 12:22:05;;;;;;;;;;;;;;;25.92;26.73;101172.91;5058886;28;1963;-32
2022/05/01 12:24:30;;;;;;;;;;;;;;;25.88;27.36;101179.66;5066028;28;767;-28
2022/05/01 12:26:56;;;;;;;;;;;;;;;25.95;27.19;101173.59;5064983;28;822;-30
2022/05/01 12:29:21;;;;;;;;;;;;;;;26.00;27.39;101172.09;5040564;28;1017;-31
2022/05/01 12:32:06;;;;;;;;;;;;;;;26.07;27.32;101168.72;5041059;28;856;-31
2022/05/01 12:34:32;;;;;;;;;;;;;;;26.03;27.46;101166.38;5058899;28;747;-33
2022/05/01 12:36:59;;;;;;;;;;;;;;;25.90;27.35;101164.16;5059061;28;787;-30
2022/05/01 12:39:25;;;;;;;;;;;;;;;25.88;27.54;101163.47;5069538;28;888;-30
2022/05/01 12:45:09;;;;;;;;;;;;;;;25.84;27.85;101155.88;5068495;28;1350;-32
2022/05/01 12:47:37;;;;;;;;;;;;;;;26.01;27.65;101157.59;5077988;28;782;-30
2022/05/01 12:50:03;;;;;;;;;;;;;;;25.96;27.71;101151.03;5077877;28;792;-31
2022/05/01 12:52:38;;;;;;;;;;;;;;;25.85;27.81;101154.88;5068314;28;958;-28
2022/05/01 12:55:17;;;;;;;;;;;;;;;25.98;27.53;101152.53;5065423;28;837;-29
2022/05/01 12:57:48;;;;;;;;;;;;;;;26.01;27.76;101151.34;5054406;28;791;-28
2022/05/01 13:00:34;;;;;;;;;;;;;;;25.88;28.17;101150.00;5077211;28;1913;-32
2022/05/01 13:03:17;;;;;;;;;;;;;;;26.01;27.75;101151.34;5078066;28;1012;-31
2022/05/01 13:05:45;;;;;;;;;;;;;;;25.96;28.09;101157.25;5065629;28;869;-28
2022/05/01 13:08:17;;;;;;;;;;;;;;;25.98;27.95;101149.84;5058833;28;917;-30
2022/05/01 13:10:42;;;;;;;;;;;;;;;25.98;28.37;101151.69;5064992;28;843;-31
2022/05/01 13:13:07;;;;;;;;;;;;;;;26.02;28.34;101148.53;5058169;28;838;-29